Time;durP1;ratioP1;P1;durP2;ratioP2;P2;SDS_P1;SDS_P2;PMS_P1;PMS_P2;Temp;Humidity;BMP_temperature;BMP_pressure;BME280_temperature;BME280_humidity;BME280_pressure;Samples;Min_cycle;Max_cycle;Signal;HPM_P1;HPM_P2
2023/05/08 00:01:39;;;;;;;;;;;;;;;10.67;100.00;97488.73;110200;1242;69107;-77
2023/05/08 00:04:15;;;;;;;;;;;;;;;10.61;100.00;97487.58;110160;1241;59830;-77
2023/05/08 00:06:44;;;;;;;;;;;;;;;10.57;100.00;97485.08;110253;1242;59627;-77
2023/05/08 00:09:15;;;;;;;;;;;;;;;10.54;100.00;97480.95;110204;1242;71274;-77
2023/05/08 00:11:44;;;;;;;;;;;;;;;10.50;100.00;97485.58;110201;1242;69179;-77
2023/05/08 00:14:14;;;;;;;;;;;;;;;10.48;100.00;97484.71;110212;1241;69460;-77
2023/05/08 00:16:46;;;;;;;;;;;;;;;10.44;100.00;97486.36;110218;1242;59737;-77
2023/05/08 00:19:15;;;;;;;;;;;;;;;10.41;100.00;97492.12;110230;1242;59686;-76
2023/05/08 00:21:46;;;;;;;;;;;;;;;10.36;100.00;97493.02;110186;1242;70654;-78
2023/05/08 00:24:16;;;;;;;;;;;;;;;10.33;100.00;97490.83;110223;1241;68512;-78
2023/05/08 00:26:50;;;;;;;;;;;;;;;10.30;100.00;97496.05;110214;1241;68528;-78
2023/05/08 00:29:24;;;;;;;;;;;;;;;10.29;100.00;97497.89;110242;1241;59976;-76
2023/05/08 00:31:54;;;;;;;;;;;;;;;10.29;100.00;97494.77;110213;1242;59688;-77
2023/05/08 00:34:24;;;;;;;;;;;;;;;10.28;100.00;97498.52;110239;1240;71336;-76
2023/05/08 00:36:55;;;;;;;;;;;;;;;10.26;100.00;97495.35;110230;1241;67698;-77
2023/05/08 00:39:26;;;;;;;;;;;;;;;10.23;100.00;97493.10;110199;1242;68412;-77
2023/05/08 00:41:57;;;;;;;;;;;;;;;10.19;100.00;97493.83;110257;1242;59691;-76
2023/05/08 00:44:28;;;;;;;;;;;;;;;10.17;100.00;97494.15;110179;1244;59759;-77
2023/05/08 00:46:58;;;;;;;;;;;;;;;10.15;100.00;97485.77;110154;1240;70746;-77
2023/05/08 00:49:35;;;;;;;;;;;;;;;10.12;100.00;97485.09;110212;1242;69687;-77
2023/05/08 00:52:08;;;;;;;;;;;;;;;10.10;100.00;97483.98;110279;1241;68517;-77
2023/05/08 00:54:39;;;;;;;;;;;;;;;10.07;100.00;97482.80;110260;1242;59702;-76
2023/05/08 00:57:11;;;;;;;;;;;;;;;10.07;100.00;97480.77;110189;1244;59725;-77
2023/05/08 00:59:45;;;;;;;;;;;;;;;10.05;100.00;97482.46;110142;1242;71473;-76
2023/05/08 01:02:15;;;;;;;;;;;;;;;10.04;100.00;97488.60;110192;1242;68269;-76
2023/05/08 01:04:47;;;;;;;;;;;;;;;10.02;100.00;97487.16;110092;1241;69093;-77
2023/05/08 01:07:17;;;;;;;;;;;;;;;10.01;100.00;97490.08;110214;1243;59727;-78
2023/05/08 01:09:48;;;;;;;;;;;;;;;9.99;100.00;97490.02;110133;1241;59772;-77
2023/05/08 01:12:19;;;;;;;;;;;;;;;9.96;100.00;97487.77;110138;1241;70469;-77
2023/05/08 01:14:59;;;;;;;;;;;;;;;9.92;100.00;97484.92;110188;1244;69221;-77
2023/05/08 01:17:35;;;;;;;;;;;;;;;9.88;100.00;97484.48;110165;1244;69152;-76
2023/05/08 01:20:17;;;;;;;;;;;;;;;9.85;100.00;97486.29;110169;1244;59766;-77
2023/05/08 01:22:47;;;;;;;;;;;;;;;9.82;100.00;97491.55;110203;1241;59694;-77
2023/05/08 01:25:21;;;;;;;;;;;;;;;9.82;100.00;97491.58;110170;1241;71938;-76
2023/05/08 01:28:03;;;;;;;;;;;;;;;9.82;100.00;97493.46;110157;1241;68592;-76
2023/05/08 01:30:33;;;;;;;;;;;;;;;9.83;100.00;97497.20;110150;1241;68990;-76
2023/05/08 01:33:13;;;;;;;;;;;;;;;9.86;100.00;97496.98;110235;1243;59751;-76
2023/05/08 01:35:48;;;;;;;;;;;;;;;9.90;100.00;97496.23;110143;1244;59650;-76
2023/05/08 01:38:20;;;;;;;;;;;;;;;9.90;100.00;97491.69;110186;1245;71307;-77
2023/05/08 01:40:53;;;;;;;;;;;;;;;9.91;100.00;97479.95;110180;1244;69268;-76
2023/05/08 01:43:30;;;;;;;;;;;;;;;9.92;100.00;97471.85;110196;1245;69181;-77
2023/05/08 01:46:04;;;;;;;;;;;;;;;9.91;100.00;97466.86;110192;1244;60032;-77
2023/05/08 01:48:41;;;;;;;;;;;;;;;9.89;100.00;97471.70;110166;1244;59725;-77
2023/05/08 01:51:16;;;;;;;;;;;;;;;9.87;100.00;97476.38;110193;1242;71781;-77
2023/05/08 01:53:55;;;;;;;;;;;;;;;9.85;100.00;97486.65;110209;1244;69115;-77
2023/05/08 01:56:28;;;;;;;;;;;;;;;9.82;100.00;97489.10;110177;1244;69574;-77
2023/05/08 01:59:03;;;;;;;;;;;;;;;9.81;100.00;97485.54;110138;1245;59702;-77
2023/05/08 02:01:35;;;;;;;;;;;;;;;9.79;100.00;97479.52;110176;1241;59677;-77
2023/05/08 02:04:07;;;;;;;;;;;;;;;9.79;100.00;97478.31;110239;1244;71215;-77
2023/05/08 02:06:38;;;;;;;;;;;;;;;9.79;100.00;97476.64;109742;1242;676235;-77
2023/05/08 02:09:11;;;;;;;;;;;;;;;9.78;100.00;97476.67;110107;1240;68156;-77
2023/05/08 02:11:42;;;;;;;;;;;;;;;9.78;100.00;97476.70;110210;1241;59748;-77
2023/05/08 02:14:20;;;;;;;;;;;;;;;9.78;100.00;97478.92;110140;1244;59711;-77
2023/05/08 02:16:53;;;;;;;;;;;;;;;9.78;100.00;97482.24;110256;1241;71231;-77
2023/05/08 02:19:27;;;;;;;;;;;;;;;9.77;100.00;97480.77;110263;1242;69294;-77
2023/05/08 02:21:58;;;;;;;;;;;;;;;9.76;100.00;97472.27;110236;1242;67927;-77
2023/05/08 02:24:29;;;;;;;;;;;;;;;9.75;100.00;97469.40;110216;1241;59707;-77
2023/05/08 02:26:59;;;;;;;;;;;;;;;9.73;100.00;97468.46;110272;1240;59676;-77
2023/05/08 02:29:31;;;;;;;;;;;;;;;9.71;100.00;97462.19;110281;1242;71432;-77
2023/05/08 02:32:02;;;;;;;;;;;;;;;9.68;100.00;97461.33;110252;1249;69295;-76
2023/05/08 02:34:33;;;;;;;;;;;;;;;9.69;100.00;97459.85;110255;1240;68507;-76
2023/05/08 02:37:09;;;;;;;;;;;;;;;9.69;100.00;97465.61;110163;1243;59695;-77
2023/05/08 02:39:41;;;;;;;;;;;;;;;9.69;100.00;97471.34;110272;1242;59628;-76
2023/05/08 02:42:11;;;;;;;;;;;;;;;9.70;100.00;97476.85;110208;1242;70527;-76
2023/05/08 02:44:42;;;;;;;;;;;;;;;9.71;100.00;97476.13;110244;1241;69074;-76
2023/05/08 02:47:25;;;;;;;;;;;;;;;9.73;100.00;97473.23;110244;1242;69182;-76
2023/05/08 02:50:09;;;;;;;;;;;;;;;9.75;100.00;97476.71;110162;1241;59723;-76
2023/05/08 02:52:47;;;;;;;;;;;;;;;9.76;100.00;97486.72;110246;1240;59681;-76
2023/05/08 02:55:21;;;;;;;;;;;;;;;9.80;100.00;97492.06;110236;1245;70696;-76
2023/05/08 02:57:57;;;;;;;;;;;;;;;9.82;100.00;97492.92;110160;1241;68998;-76
2023/05/08 03:00:30;;;;;;;;;;;;;;;9.88;100.00;97497.02;110147;1241;69345;-77
2023/05/08 03:03:04;;;;;;;;;;;;;;;9.94;100.00;97497.70;110250;1242;59814;-76
2023/05/08 03:05:39;;;;;;;;;;;;;;;9.98;100.00;97491.49;110261;1242;59669;-76
2023/05/08 03:08:13;;;;;;;;;;;;;;;10.03;100.00;97471.45;110216;1242;70632;-75
2023/05/08 03:10:45;;;;;;;;;;;;;;;10.06;100.00;97466.20;110197;1241;68991;-76
2023/05/08 03:13:17;;;;;;;;;;;;;;;10.10;100.00;97466.95;110140;1246;69305;-76
2023/05/08 03:15:53;;;;;;;;;;;;;;;10.15;100.00;97468.36;110097;1245;59769;-76
2023/05/08 03:18:35;;;;;;;;;;;;;;;10.16;100.00;97455.89;110135;1244;59681;-76
2023/05/08 03:21:05;;;;;;;;;;;;;;;10.16;100.00;97439.68;110153;1241;70420;-75
2023/05/08 03:23:35;;;;;;;;;;;;;;;10.16;100.00;97440.41;110176;1241;69396;-76
2023/05/08 03:26:05;;;;;;;;;;;;;;;10.15;100.00;97438.39;110149;1244;69110;-77
2023/05/08 03:28:36;;;;;;;;;;;;;;;10.15;100.00;97444.10;110124;1244;59725;-76
2023/05/08 03:31:06;;;;;;;;;;;;;;;10.15;100.00;97447.27;110188;1242;59707;-76
2023/05/08 03:33:37;;;;;;;;;;;;;;;10.13;100.00;97451.77;110304;1242;70751;-77
2023/05/08 03:36:08;;;;;;;;;;;;;;;10.11;100.00;97451.02;110194;1241;69035;-77
2023/05/08 03:38:38;;;;;;;;;;;;;;;10.09;100.00;97454.45;110272;1242;69264;-77
2023/05/08 03:41:08;;;;;;;;;;;;;;;10.09;100.00;97454.31;110258;1243;59765;-77
2023/05/08 03:43:38;;;;;;;;;;;;;;;10.08;100.00;97451.24;110146;1241;59754;-76
2023/05/08 03:46:09;;;;;;;;;;;;;;;10.07;100.00;97454.60;110229;1243;71398;-76
2023/05/08 03:48:39;;;;;;;;;;;;;;;10.06;100.00;97453.80;110249;1244;69149;-77
2023/05/08 03:51:09;;;;;;;;;;;;;;;10.06;100.00;97454.52;110351;1241;69281;-77
2023/05/08 03:53:39;;;;;;;;;;;;;;;10.06;100.00;97458.69;110276;1245;59753;-76
2023/05/08 03:56:10;;;;;;;;;;;;;;;10.06;100.00;97456.13;110222;1244;59742;-77
2023/05/08 03:58:47;;;;;;;;;;;;;;;10.04;100.00;97457.10;110293;1241;70934;-77
2023/05/08 04:01:23;;;;;;;;;;;;;;;10.04;100.00;97460.61;110249;1243;69744;-77
2023/05/08 04:04:13;;;;;;;;;;;;;;;10.05;100.00;97463.63;110234;1242;69297;-77
2023/05/08 04:06:48;;;;;;;;;;;;;;;10.09;100.00;97463.05;110242;1245;59712;-77
2023/05/08 04:09:30;;;;;;;;;;;;;;;10.13;100.00;97466.23;110228;1242;59652;-77
2023/05/08 04:12:00;;;;;;;;;;;;;;;10.19;100.00;97467.91;110285;1241;71969;-78
2023/05/08 04:14:38;;;;;;;;;;;;;;;10.25;100.00;97470.80;110212;1241;69172;-78
2023/05/08 04:17:10;;;;;;;;;;;;;;;10.33;100.00;97472.01;110354;1242;69815;-77
2023/05/08 04:19:42;;;;;;;;;;;;;;;10.41;100.00;97470.76;110173;1243;59743;-77
2023/05/08 04:22:13;;;;;;;;;;;;;;;10.49;100.00;97469.29;110190;1242;59782;-77
2023/05/08 04:24:47;;;;;;;;;;;;;;;10.60;100.00;97469.57;110289;1240;71186;-76
2023/05/08 04:27:17;;;;;;;;;;;;;;;10.70;100.00;97471.27;110232;1242;69244;-77
2023/05/08 04:29:48;;;;;;;;;;;;;;;10.79;100.00;97471.46;110213;1241;69252;-76
2023/05/08 04:32:18;;;;;;;;;;;;;;;10.88;100.00;97473.80;110147;1240;60066;-76
2023/05/08 04:34:46;;;;;;;;;;;;;;;10.97;100.00;97476.44;110167;1243;59685;-78
2023/05/08 04:37:26;;;;;;;;;;;;;;;11.05;100.00;97475.33;110128;1245;72515;-76
2023/05/08 04:39:55;;;;;;;;;;;;;;;11.09;100.00;97476.46;110160;1244;69231;-76
2023/05/08 04:42:27;;;;;;;;;;;;;;;11.13;100.00;97476.98;110219;1240;70163;-76
2023/05/08 04:44:58;;;;;;;;;;;;;;;11.20;100.00;97480.80;110159;1243;59731;-77
2023/05/08 04:47:28;;;;;;;;;;;;;;;11.29;100.00;97479.33;110167;1243;59640;-77
2023/05/08 04:49:57;;;;;;;;;;;;;;;11.36;100.00;97480.00;110245;1242;71228;-76
2023/05/08 04:52:30;;;;;;;;;;;;;;;11.42;100.00;97479.52;110258;1242;69664;-72
2023/05/08 04:54:58;;;;;;;;;;;;;;;11.45;100.00;97481.92;110107;1244;69808;-75
2023/05/08 04:57:28;;;;;;;;;;;;;;;11.53;100.00;97484.48;110213;1240;59650;-75
2023/05/08 04:59:58;;;;;;;;;;;;;;;11.57;100.00;97484.04;110263;1242;59743;-76
2023/05/08 05:02:27;;;;;;;;;;;;;;;11.66;100.00;97479.79;110187;1241;71738;-75
2023/05/08 05:05:00;;;;;;;;;;;;;;;11.77;100.00;97478.80;110231;1241;69238;-75
2023/05/08 05:07:30;;;;;;;;;;;;;;;11.90;100.00;97479.80;110239;1242;69115;-75
2023/05/08 05:09:59;;;;;;;;;;;;;;;12.02;100.00;97484.81;110224;1243;59753;-75
2023/05/08 05:12:29;;;;;;;;;;;;;;;12.12;100.00;97484.20;110118;1244;59646;-75
2023/05/08 05:14:58;;;;;;;;;;;;;;;12.20;100.00;97487.42;110234;1242;69477;-75
2023/05/08 05:17:30;;;;;;;;;;;;;;;12.26;100.00;97492.73;110264;1242;69248;-75
2023/05/08 05:19:59;;;;;;;;;;;;;;;12.31;100.00;97495.30;110122;1245;69913;-75
2023/05/08 05:22:31;;;;;;;;;;;;;;;12.39;100.00;97500.09;110139;1245;59761;-75
2023/05/08 05:25:00;;;;;;;;;;;;;;;12.47;100.00;97502.80;110204;1242;59753;-75
2023/05/08 05:27:30;;;;;;;;;;;;;;;12.48;100.00;97503.22;110260;1241;71354;-75
2023/05/08 05:29:59;;;;;;;;;;;;;;;12.49;100.00;97505.59;110171;1241;69194;-75
2023/05/08 05:32:30;;;;;;;;;;;;;;;12.55;100.00;97503.86;110216;1243;69902;-75
2023/05/08 05:34:59;;;;;;;;;;;;;;;12.64;100.00;97505.11;110098;1244;59667;-75
2023/05/08 05:37:28;;;;;;;;;;;;;;;12.70;100.00;97505.61;110195;1242;59752;-77
2023/05/08 05:39:58;;;;;;;;;;;;;;;12.74;100.00;97503.03;110190;1242;71456;-75
2023/05/08 05:42:27;;;;;;;;;;;;;;;12.89;100.00;97498.37;110152;1244;69825;-75
2023/05/08 05:44:56;;;;;;;;;;;;;;;13.00;100.00;97496.55;110142;1244;68954;-75
2023/05/08 05:47:25;;;;;;;;;;;;;;;13.16;100.00;97495.61;110227;1242;59744;-75
2023/05/08 05:49:55;;;;;;;;;;;;;;;13.38;100.00;97493.54;110262;1242;59728;-75
2023/05/08 05:52:25;;;;;;;;;;;;;;;13.60;100.00;97496.59;110079;1240;71762;-75
2023/05/08 05:54:55;;;;;;;;;;;;;;;13.76;100.00;97499.21;110187;1244;68499;-76
2023/05/08 05:57:24;;;;;;;;;;;;;;;13.92;100.00;97504.77;110223;1242;69238;-75
2023/05/08 05:59:53;;;;;;;;;;;;;;;14.06;100.00;97503.71;110178;1241;59809;-75
2023/05/08 06:02:22;;;;;;;;;;;;;;;14.17;100.00;97504.02;110252;1240;59697;-76
2023/05/08 06:04:51;;;;;;;;;;;;;;;14.27;100.00;97501.40;110226;1242;71546;-75
2023/05/08 06:07:20;;;;;;;;;;;;;;;14.41;100.00;97498.80;110271;1240;69827;-76
2023/05/08 06:09:51;;;;;;;;;;;;;;;14.51;100.00;97499.88;110200;1242;69868;-75
2023/05/08 06:12:21;;;;;;;;;;;;;;;14.51;98.84;97492.84;110241;1240;59703;-75
2023/05/08 06:14:51;;;;;;;;;;;;;;;14.37;96.72;97495.99;110180;1242;59691;-75
2023/05/08 06:17:21;;;;;;;;;;;;;;;14.55;95.55;97501.58;110128;1241;71970;-75
2023/05/08 06:19:53;;;;;;;;;;;;;;;14.69;94.59;97501.63;110213;1241;69211;-76
2023/05/08 06:22:23;;;;;;;;;;;;;;;14.68;94.89;97504.15;110152;1244;69295;-75
2023/05/08 06:24:52;;;;;;;;;;;;;;;14.60;96.29;97501.02;110171;1241;59688;-75
2023/05/08 06:27:21;;;;;;;;;;;;;;;14.74;95.19;97502.58;110249;1242;59662;-75
2023/05/08 06:29:52;;;;;;;;;;;;;;;14.67;94.20;97504.59;110189;1242;70860;-75
2023/05/08 06:32:21;;;;;;;;;;;;;;;14.66;95.31;97503.79;110186;1242;69576;-75
2023/05/08 06:34:50;;;;;;;;;;;;;;;14.88;95.70;97505.23;110171;1240;69340;-76
2023/05/08 06:37:19;;;;;;;;;;;;;;;15.02;93.63;97503.19;110217;1242;60130;-76
2023/05/08 06:39:47;;;;;;;;;;;;;;;15.04;93.27;97499.86;110233;1242;59680;-76
2023/05/08 06:42:27;;;;;;;;;;;;;;;14.96;93.05;97507.27;110189;1240;72411;-76
2023/05/08 06:44:57;;;;;;;;;;;;;;;15.04;93.46;97503.59;110188;1241;69766;-76
2023/05/08 06:47:26;;;;;;;;;;;;;;;15.03;93.91;97507.20;110164;1244;69372;-76
2023/05/08 06:49:55;;;;;;;;;;;;;;;14.99;92.88;97513.28;110208;1241;59710;-75
2023/05/08 06:52:24;;;;;;;;;;;;;;;15.15;95.55;97514.02;110386;1242;59711;-87
2023/05/08 06:54:53;;;;;;;;;;;;;;;15.31;95.31;97518.14;110207;1242;72010;-87
2023/05/08 06:57:23;;;;;;;;;;;;;;;15.28;95.76;97515.11;110221;1241;68619;-87
2023/05/08 06:59:52;;;;;;;;;;;;;;;15.27;93.77;97515.05;110204;1242;69896;-85
2023/05/08 07:02:21;;;;;;;;;;;;;;;15.28;94.31;97512.33;110217;1242;59760;-85
2023/05/08 07:04:51;;;;;;;;;;;;;;;15.31;93.79;97513.45;110283;1242;59649;-85
2023/05/08 07:07:19;;;;;;;;;;;;;;;15.36;92.18;97517.02;110252;1240;71940;-85
2023/05/08 07:09:48;;;;;;;;;;;;;;;15.28;91.39;97521.24;110229;1240;68645;-85
2023/05/08 07:12:19;;;;;;;;;;;;;;;15.33;91.92;97520.33;110201;1240;69758;-84
2023/05/08 07:14:49;;;;;;;;;;;;;;;15.30;91.86;97523.58;110212;1242;59747;-84
2023/05/08 07:17:18;;;;;;;;;;;;;;;15.24;93.50;97525.43;110208;1242;59719;-84
2023/05/08 07:19:49;;;;;;;;;;;;;;;15.27;92.11;97527.79;110196;1241;72406;-83
2023/05/08 07:22:18;;;;;;;;;;;;;;;15.24;90.75;97527.59;110208;1242;69896;-80
2023/05/08 07:24:47;;;;;;;;;;;;;;;15.15;90.77;97531.55;110186;1242;69716;-80
2023/05/08 07:27:17;;;;;;;;;;;;;;;14.97;91.31;97529.66;110230;1242;59676;-79
2023/05/08 07:29:45;;;;;;;;;;;;;;;15.03;91.20;97532.59;110207;1242;59638;-79
2023/05/08 07:32:15;;;;;;;;;;;;;;;15.30;91.10;97530.38;110182;1240;71462;-78
2023/05/08 07:34:43;;;;;;;;;;;;;;;15.66;91.69;97530.15;110206;1241;68361;-78
2023/05/08 07:37:13;;;;;;;;;;;;;;;16.21;90.59;97529.43;110167;1242;68526;-78
2023/05/08 07:39:42;;;;;;;;;;;;;;;16.46;88.91;97531.13;110234;1242;59716;-77
2023/05/08 07:42:10;;;;;;;;;;;;;;;16.72;86.55;97529.65;110236;1242;59678;-77
2023/05/08 07:44:39;;;;;;;;;;;;;;;16.84;84.52;97529.13;110134;1241;71485;-77
2023/05/08 07:47:22;;;;;;;;;;;;;;;16.76;84.04;97526.70;110201;1242;68459;-75
2023/05/08 07:49:52;;;;;;;;;;;;;;;16.63;84.52;97528.99;110209;1241;70126;-76
2023/05/08 07:52:20;;;;;;;;;;;;;;;16.61;85.01;97522.64;110198;1242;59743;-76
2023/05/08 07:54:49;;;;;;;;;;;;;;;16.60;85.12;97520.97;110234;1241;59727;-76
2023/05/08 07:57:18;;;;;;;;;;;;;;;16.61;82.85;97520.21;110191;1241;71412;-75
2023/05/08 07:59:47;;;;;;;;;;;;;;;16.63;82.12;97526.88;110199;1242;69689;-75
2023/05/08 08:02:16;;;;;;;;;;;;;;;16.59;81.92;97529.55;110174;1240;69226;-76
2023/05/08 08:04:45;;;;;;;;;;;;;;;16.56;79.20;97527.15;110192;1242;59753;-75
2023/05/08 08:07:13;;;;;;;;;;;;;;;16.58;81.11;97528.07;110227;1242;59679;-75
2023/05/08 08:09:43;;;;;;;;;;;;;;;16.87;80.96;97528.10;110189;1242;71985;-75
2023/05/08 08:12:11;;;;;;;;;;;;;;;17.46;78.33;97527.95;110207;1242;69069;-76
2023/05/08 08:14:41;;;;;;;;;;;;;;;17.95;76.46;97518.33;110203;1242;69880;-76
2023/05/08 08:17:10;;;;;;;;;;;;;;;18.10;71.96;97523.10;110248;1242;59737;-76
2023/05/08 08:19:39;;;;;;;;;;;;;;;18.24;71.52;97523.35;110219;1242;59681;-74
2023/05/08 08:22:08;;;;;;;;;;;;;;;18.41;70.31;97521.52;110190;1242;71384;-75
2023/05/08 08:24:37;;;;;;;;;;;;;;;18.48;68.99;97526.34;110242;1242;69251;-75
2023/05/08 08:27:07;;;;;;;;;;;;;;;18.85;70.11;97525.54;110201;1242;69781;-76
2023/05/08 08:29:36;;;;;;;;;;;;;;;18.86;66.82;97526.46;110190;1242;59793;-76
2023/05/08 08:32:05;;;;;;;;;;;;;;;18.63;65.50;97526.56;110241;1240;59750;-75
2023/05/08 08:34:35;;;;;;;;;;;;;;;18.35;64.47;97522.65;110195;1242;70436;-74
2023/05/08 08:37:04;;;;;;;;;;;;;;;18.14;66.03;97525.88;110246;1241;68480;-75
2023/05/08 08:39:34;;;;;;;;;;;;;;;18.72;66.92;97520.81;110173;1242;69632;-74
2023/05/08 08:42:03;;;;;;;;;;;;;;;19.16;64.33;97521.68;110206;1240;59741;-73
2023/05/08 08:44:32;;;;;;;;;;;;;;;19.45;63.59;97518.01;110240;1242;59687;-74
2023/05/08 08:47:01;;;;;;;;;;;;;;;20.12;62.59;97517.02;110286;1242;71485;-75
2023/05/08 08:49:31;;;;;;;;;;;;;;;20.31;61.79;97520.70;110213;1241;69754;-75
2023/05/08 08:52:19;;;;;;;;;;;;;;;20.32;61.14;97519.15;110190;1241;69233;-74
2023/05/08 08:54:48;;;;;;;;;;;;;;;20.29;60.27;97514.75;110196;1241;59748;-74
2023/05/08 08:57:19;;;;;;;;;;;;;;;20.10;58.62;97513.83;110182;1240;59799;-74
2023/05/08 08:59:48;;;;;;;;;;;;;;;20.03;60.36;97509.13;110214;1242;70708;-74
2023/05/08 09:02:18;;;;;;;;;;;;;;;19.94;59.65;97507.78;110201;1242;69846;-75
2023/05/08 09:04:50;;;;;;;;;;;;;;;20.26;59.33;97507.81;110189;1242;69872;-73
2023/05/08 09:07:19;;;;;;;;;;;;;;;20.56;57.72;97502.90;110211;1240;59713;-74
2023/05/08 09:09:49;;;;;;;;;;;;;;;21.06;57.77;97503.46;110256;1241;59685;-74
2023/05/08 09:12:17;;;;;;;;;;;;;;;21.51;56.58;97505.02;110233;1241;71965;-75
2023/05/08 09:14:46;;;;;;;;;;;;;;;21.51;56.30;97504.64;110228;1240;68271;-74
2023/05/08 09:17:15;;;;;;;;;;;;;;;21.94;55.21;97501.95;110165;1240;69620;-74
2023/05/08 09:19:47;;;;;;;;;;;;;;;22.39;53.32;97505.66;110197;1242;59735;-74
2023/05/08 09:22:16;;;;;;;;;;;;;;;22.73;53.04;97504.48;110254;1240;59705;-75
2023/05/08 09:24:58;;;;;;;;;;;;;;;23.15;52.12;97501.76;110218;1242;71349;-75
2023/05/08 09:27:27;;;;;;;;;;;;;;;22.64;50.51;97501.13;110231;1242;68815;-72
2023/05/08 09:30:04;;;;;;;;;;;;;;;22.48;51.67;97501.54;110175;1240;68515;-74
2023/05/08 09:32:34;;;;;;;;;;;;;;;22.52;48.63;97501.76;110297;1241;59701;-73
2023/05/08 09:35:04;;;;;;;;;;;;;;;22.19;47.14;97500.39;110197;1242;59647;-74
2023/05/08 09:37:35;;;;;;;;;;;;;;;22.05;47.90;97500.82;110171;1244;71971;-74
2023/05/08 09:40:15;;;;;;;;;;;;;;;21.73;48.32;97494.50;110221;1242;69856;-74
2023/05/08 09:42:44;;;;;;;;;;;;;;;21.53;48.30;97495.70;110220;1242;70339;-75
2023/05/08 09:45:30;;;;;;;;;;;;;;;21.18;49.05;97494.98;110228;1241;59703;-75
2023/05/08 09:47:59;;;;;;;;;;;;;;;21.26;49.34;97486.38;110198;1242;59638;-75
2023/05/08 09:50:28;;;;;;;;;;;;;;;21.00;49.01;97483.70;110271;1240;70911;-75
2023/05/08 09:52:58;;;;;;;;;;;;;;;20.91;49.35;97483.31;110236;1241;69313;-74
2023/05/08 09:55:45;;;;;;;;;;;;;;;21.25;49.71;97483.52;110198;1242;69625;-74
2023/05/08 09:58:14;;;;;;;;;;;;;;;21.96;49.48;97471.86;110177;1242;59802;-73
2023/05/08 10:00:42;;;;;;;;;;;;;;;22.61;46.48;97472.36;110227;1242;59692;-74
2023/05/08 10:03:12;;;;;;;;;;;;;;;23.29;46.08;97464.93;110236;1242;71982;-74
2023/05/08 10:05:41;;;;;;;;;;;;;;;23.72;45.04;97463.13;110220;1241;69409;-74
2023/05/08 10:08:17;;;;;;;;;;;;;;;24.10;44.90;97462.13;110172;1245;69106;-74
2023/05/08 10:10:46;;;;;;;;;;;;;;;24.48;42.42;97466.63;110176;1242;59699;-74
2023/05/08 10:13:15;;;;;;;;;;;;;;;24.77;41.13;97469.23;110173;1242;59712;-75
2023/05/08 10:15:44;;;;;;;;;;;;;;;24.92;41.47;97466.08;110198;1241;71397;-74
2023/05/08 10:18:15;;;;;;;;;;;;;;;24.82;41.53;97464.98;110180;1241;68479;-75
2023/05/08 10:20:47;;;;;;;;;;;;;;;24.85;40.75;97465.52;110211;1241;69331;-74
2023/05/08 10:23:17;;;;;;;;;;;;;;;24.61;40.32;97453.21;110199;1242;59723;-74
2023/05/08 10:25:49;;;;;;;;;;;;;;;24.72;40.35;97456.20;110207;1242;59686;-75
2023/05/08 10:28:28;;;;;;;;;;;;;;;24.28;39.80;97457.84;110192;1240;70751;-73
2023/05/08 10:30:59;;;;;;;;;;;;;;;23.82;41.15;97457.83;110222;1242;69287;-74
2023/05/08 10:33:30;;;;;;;;;;;;;;;22.98;42.78;97459.07;110183;1241;70398;-75
2023/05/08 10:35:59;;;;;;;;;;;;;;;22.12;43.80;97460.67;110161;1242;59738;-73
2023/05/08 10:38:30;;;;;;;;;;;;;;;21.88;44.34;97461.38;110217;1242;59650;-74
2023/05/08 10:41:00;;;;;;;;;;;;;;;21.83;43.85;97458.52;110181;1240;71413;-74
2023/05/08 10:43:30;;;;;;;;;;;;;;;22.11;44.01;97458.71;110203;1242;69785;-73
2023/05/08 10:46:04;;;;;;;;;;;;;;;22.23;43.32;97470.09;110172;1242;70171;-73
2023/05/08 10:48:33;;;;;;;;;;;;;;;22.53;43.44;97471.57;110193;1244;59747;-74
2023/05/08 10:51:07;;;;;;;;;;;;;;;22.85;42.23;97468.98;110237;1242;59737;-76
2023/05/08 10:53:38;;;;;;;;;;;;;;;22.91;42.11;97468.25;110204;1241;71175;-75
2023/05/08 10:56:08;;;;;;;;;;;;;;;22.87;40.79;97460.84;110227;1242;69370;-74
2023/05/08 10:58:40;;;;;;;;;;;;;;;23.37;40.36;97460.95;110200;1246;68763;-76
2023/05/08 11:01:10;;;;;;;;;;;;;;;23.58;39.10;97461.36;110199;1241;59743;-73
2023/05/08 11:03:44;;;;;;;;;;;;;;;23.76;39.12;97460.81;110192;1240;59696;-75
2023/05/08 11:06:13;;;;;;;;;;;;;;;24.05;38.32;97455.45;110184;1240;71944;-74
2023/05/08 11:08:45;;;;;;;;;;;;;;;24.25;38.09;97457.30;110213;1240;68314;-75
2023/05/08 11:11:23;;;;;;;;;;;;;;;24.44;38.03;97454.16;110209;1242;68248;-75
2023/05/08 11:13:58;;;;;;;;;;;;;;;24.15;37.65;97452.23;110250;1242;59764;-75
2023/05/08 11:16:46;;;;;;;;;;;;;;;24.01;38.43;97461.33;110231;1242;59747;-76
2023/05/08 11:19:15;;;;;;;;;;;;;;;23.61;38.59;97463.08;110165;1241;71968;-74
2023/05/08 11:22:03;;;;;;;;;;;;;;;23.82;38.63;97466.70;110211;1241;68578;-76
2023/05/08 11:24:35;;;;;;;;;;;;;;;23.85;38.66;97458.37;110249;1241;69863;-76
2023/05/08 11:27:04;;;;;;;;;;;;;;;24.35;38.33;97455.10;110190;1242;59707;-75
2023/05/08 11:29:33;;;;;;;;;;;;;;;24.68;37.91;97459.39;110149;1242;59669;-75
2023/05/08 11:32:01;;;;;;;;;;;;;;;24.55;38.08;97460.80;110218;1240;71713;-74
2023/05/08 11:34:41;;;;;;;;;;;;;;;24.54;37.66;97456.61;110242;1242;69755;-74
2023/05/08 11:37:25;;;;;;;;;;;;;;;24.17;36.61;97454.02;110224;1241;69275;-75
2023/05/08 11:40:14;;;;;;;;;;;;;;;24.27;36.11;97448.73;110173;1242;59805;-75
2023/05/08 11:42:43;;;;;;;;;;;;;;;24.01;36.59;97450.97;110269;1242;59633;-76
2023/05/08 11:45:13;;;;;;;;;;;;;;;23.88;36.67;97453.34;110189;1242;71419;-76
2023/05/08 11:47:43;;;;;;;;;;;;;;;23.78;36.89;97457.69;110221;1245;69119;-76
2023/05/08 11:50:12;;;;;;;;;;;;;;;23.94;36.21;97457.52;110187;1240;69228;-76
2023/05/08 11:52:42;;;;;;;;;;;;;;;23.63;37.04;97456.64;110166;1241;59708;-76
2023/05/08 11:55:12;;;;;;;;;;;;;;;23.85;35.35;97458.71;110203;1240;59681;-76
2023/05/08 11:57:41;;;;;;;;;;;;;;;23.42;35.74;97464.81;110151;1241;70645;-75
2023/05/08 12:00:11;;;;;;;;;;;;;;;23.37;36.22;97467.03;110245;1242;69789;-76
2023/05/08 12:02:42;;;;;;;;;;;;;;;23.41;36.03;97463.34;110204;1242;69725;-75
2023/05/08 12:05:11;;;;;;;;;;;;;;;22.97;36.63;97470.95;110190;1242;59744;-75
2023/05/08 12:07:46;;;;;;;;;;;;;;;22.67;36.79;97471.33;110181;1243;59734;-76
2023/05/08 12:10:16;;;;;;;;;;;;;;;22.42;37.86;97468.20;110208;1241;71326;-75
2023/05/08 12:12:45;;;;;;;;;;;;;;;22.51;38.25;97468.27;110200;1242;68472;-76
2023/05/08 12:15:14;;;;;;;;;;;;;;;22.21;38.18;97467.52;110214;1242;69206;-75
2023/05/08 12:17:43;;;;;;;;;;;;;;;22.07;38.58;97466.09;110170;1242;59776;-74
2023/05/08 12:20:15;;;;;;;;;;;;;;;21.78;39.75;97462.15;110231;1242;59735;-74
2023/05/08 12:22:51;;;;;;;;;;;;;;;21.80;40.06;97462.90;110201;1242;71960;-74
2023/05/08 12:25:20;;;;;;;;;;;;;;;21.73;39.90;97462.98;110195;1241;69203;-75
2023/05/08 12:27:50;;;;;;;;;;;;;;;21.63;40.38;97466.17;110198;1242;69598;-75
2023/05/08 12:30:19;;;;;;;;;;;;;;;21.56;40.25;97465.48;110168;1242;59711;-74
2023/05/08 12:32:48;;;;;;;;;;;;;;;21.35;40.71;97472.95;110218;1242;59711;-74
2023/05/08 12:35:17;;;;;;;;;;;;;;;21.39;40.08;97471.82;110215;1242;71431;-74
2023/05/08 12:37:46;;;;;;;;;;;;;;;21.27;40.51;97480.44;110213;1242;69849;-74
2023/05/08 12:40:32;;;;;;;;;;;;;;;21.12;41.09;97477.03;110159;1241;69426;-75
2023/05/08 12:43:03;;;;;;;;;;;;;;;21.07;40.73;97482.23;110195;1241;59741;-75
2023/05/08 12:45:33;;;;;;;;;;;;;;;21.11;41.84;97487.21;110223;1242;59692;-75
2023/05/08 12:48:03;;;;;;;;;;;;;;;21.27;41.28;97486.85;110213;1240;71665;-75
2023/05/08 12:50:38;;;;;;;;;;;;;;;21.31;41.05;97492.36;110230;1241;69092;-75
2023/05/08 12:53:08;;;;;;;;;;;;;;;21.21;41.09;97494.83;110178;1242;70540;-74
2023/05/08 12:55:37;;;;;;;;;;;;;;;21.19;40.63;97500.67;110179;1242;59680;-75